Latest Weather Observations for Cooktown

IDQ60801

Issued at 8:22 pm EST Tuesday 23 October 2018 (issued every 10 minutes, with the page automatically refreshed every 10 minutes)

About weather observations | Map of weather stations | Latest weather observations for QLD | Other Formats
Station Details ID: 031209 Name: COOKTOWN AIRPORT Lat: -15.45 Lon: 145.19 Height: 4.8 m
Data from the previous 72 hours. | See also: Recent months at Cooktown
Date/Time
EST
Temp
°C
App
Temp
°C
Dew
Point
°C
Rel
Hum
%
Delta-T
°C
Wind Press
QNH
hPa
Press
MSL
hPa
Rain since
9am
mm
Dir  Spd
km/h
Gust
km/h
Spd
kts
Gust
kts
23/08:00pm 25.3 28.2 21.8 81 2.3 SE 9 13 5 7 1012.8 - 0.0
23/07:30pm 25.6 27.7 21.7 79 2.6 ESE 13 17 7 9 1012.4 - 0.0
23/07:00pm 25.9 27.6 21.7 77 2.8 ESE 15 20 8 11 1012.1 - 0.0
23/06:34pm 26.0 27.7 21.6 76 2.9 E 15 20 8 11 1011.9 - 0.0
23/06:30pm 26.1 26.9 21.4 75 3.1 E 19 24 10 13 1011.8 - 0.0
23/05:35pm 27.4 28.5 22.0 72 3.6 E 19 24 10 13 1011.4 - 0.0
23/05:30pm 27.6 28.8 22.1 72 3.7 E 19 24 10 13 1011.3 - 0.0
23/05:00pm 27.8 28.6 21.7 69 4.1 E 20 28 11 15 1010.9 - 0.0
23/04:30pm 28.2 28.4 21.3 66 4.6 E 22 30 12 16 1010.6 - 0.0
23/04:00pm 28.3 28.3 20.9 64 4.9 E 22 32 12 17 1010.4 - 0.0
23/03:30pm 29.1 29.3 20.5 59 5.7 E 20 28 11 15 1010.2 - 0.0
23/03:00pm 29.3 29.1 20.5 59 5.8 E 22 33 12 18 1010.5 1010.4 0.0
23/02:30pm 29.5 29.4 20.8 59 5.8 E 22 32 12 17 1010.6 - 0.0
23/02:00pm 29.5 29.2 20.4 58 6.0 ESE 22 30 12 16 1011.1 - 0.0
23/01:30pm 29.8 29.5 20.4 57 6.2 ESE 22 32 12 17 1011.5 - 0.0
23/01:00pm 29.4 29.2 20.6 59 5.8 ESE 22 30 12 16 1012.0 - 0.0
23/12:30pm 29.8 29.8 20.2 56 6.3 ENE 20 30 11 16 1012.6 - 0.0
23/12:00pm 29.2 28.8 20.1 58 6.0 E 22 28 12 15 1013.1 1013.0 0.0
23/11:30am 29.4 29.1 19.6 55 6.4 E 20 30 11 16 1013.5 - 0.0
23/11:00am 29.1 28.9 20.6 60 5.6 E 22 28 12 15 1013.8 - 0.0
23/10:30am 29.8 29.9 21.1 59 5.8 E 22 32 12 17 1014.1 - 0.0
23/10:00am 28.2 28.6 21.0 65 4.8 ESE 20 26 11 14 1014.3 - 0.0
23/09:30am 28.8 29.6 21.3 64 5.0 E 19 26 10 14 1014.4 - 0.0
23/09:00am 28.4 28.9 21.2 65 4.8 ESE 20 28 11 15 1014.3 1014.2 0.0
23/08:30am 27.9 29.0 21.3 67 4.4 E 17 26 9 14 1013.8 - 0.0
23/08:23am 28.5 29.9 21.8 67 4.5 E 17 24 9 13 1013.7 - 0.0
23/08:00am 27.4 28.6 21.4 70 4.0 E 17 24 9 13 1013.6 - 0.0
23/07:47am 27.7 29.1 21.9 70 3.9 E 17 20 9 11 1013.3 - 0.0
23/07:30am 27.3 28.7 21.9 72 3.6 E 17 22 9 12 1013.3 - 0.0
23/07:00am 26.4 29.5 22.2 78 2.8 E 9 20 5 11 1012.7 - 0.0
23/06:30am 24.3 29.4 22.7 91 1.1 CALM 0 0 0 0 1012.3 - 0.0
23/06:20am 24.3 29.3 22.5 90 1.2 CALM 0 0 0 0 1012.2 - 0.0
23/06:00am 24.6 29.7 22.7 89 1.3 CALM 0 0 0 0 1011.9 1011.8 0.0
23/05:36am 24.6 28.4 22.4 87 1.5 ESE 6 7 3 4 1011.5 - 0.0
23/05:30am 24.7 28.4 22.2 86 1.7 ESE 6 7 3 4 1011.4 - 0.0
23/05:23am 24.7 28.8 22.2 86 1.7 E 4 7 2 4 1011.4 - 0.0
23/05:00am 25.0 28.7 22.5 86 1.7 E 7 9 4 5 1011.1 - 0.0
23/04:48am 25.1 28.3 22.3 84 1.9 ESE 9 11 5 6 1011.0 - 0.0
23/04:42am 25.2 28.3 22.2 83 2.0 ESE 9 13 5 7 1010.9 - 0.0
23/04:30am 25.2 28.3 22.1 83 2.1 E 9 13 5 7 1010.8 - 0.0
23/04:27am 25.2 28.3 22.1 83 2.1 E 9 13 5 7 1010.8 - 0.0
23/04:22am 25.2 28.3 22.1 83 2.1 E 9 13 5 7 1010.7 - 0.0
23/04:09am 25.5 28.6 22.1 81 2.3 ENE 9 17 5 9 1010.6 - 0.0
23/04:00am 25.6 27.8 21.9 80 2.5 E 13 19 7 10 1010.6 - 0.0
23/03:30am 25.7 28.0 22.1 80 2.4 E 13 19 7 10 1010.6 - 0.0
23/03:26am 25.7 28.0 22.1 80 2.4 E 13 20 7 11 1010.7 - 0.0
23/03:13am 25.6 28.6 22.0 80 2.4 ESE 9 13 5 7 1010.6 - 0.0
23/03:00am 25.5 28.2 22.1 81 2.3 E 11 15 6 8 1010.7 1010.6 0.0
23/02:59am 25.5 28.2 22.2 82 2.2 E 11 15 6 8 1010.7 - 0.0
23/02:30am 25.5 28.2 22.1 81 2.3 E 11 13 6 7 1011.0 - 0.0
23/02:27am 25.5 28.2 22.2 82 2.2 E 11 17 6 9 1011.1 - 0.0
23/02:00am 25.4 28.1 22.1 82 2.2 E 11 15 6 8 1011.2 - 0.0
23/01:53am 25.5 27.8 22.1 81 2.3 E 13 17 7 9 1011.3 - 0.0
23/01:39am 25.4 28.6 22.3 83 2.1 ESE 9 13 5 7 1011.5 - 0.0
23/01:36am 25.5 28.7 22.4 83 2.1 ESE 9 17 5 9 1011.6 - 0.0
23/01:30am 25.5 28.4 22.4 83 2.1 ESE 11 17 6 9 1011.6 - 0.0
23/01:21am 25.6 28.0 22.3 82 2.2 ESE 13 19 7 10 1011.7 - 0.0
23/01:17am 25.7 28.1 22.3 81 2.3 ESE 13 19 7 10 1011.8 - 0.0
23/01:00am 25.7 28.6 22.4 82 2.2 ESE 11 19 6 10 1011.8 - 0.0
23/12:34am 25.8 28.3 22.4 81 2.3 E 13 19 7 10 1011.9 - 0.0
23/12:30am 25.8 28.3 22.4 81 2.3 E 13 19 7 10 1012.0 - 0.0
23/12:28am 25.8 28.3 22.4 81 2.3 E 13 19 7 10 1012.0 - 0.0
23/12:10am 25.9 27.9 22.2 80 2.5 E 15 22 8 12 1012.2 - 0.0
23/12:00am 25.8 27.4 22.1 80 2.5 E 17 20 9 11 1012.4 1012.3 0.0
 
Date/Time
EST
Temp
°C
App
Temp
°C
Dew
Point
°C
Rel
Hum
%
Delta-T
°C
Wind Press
QNH
hPa
Press
MSL
hPa
Rain since
9am
mm
Dir  Spd
km/h
Gust
km/h
Spd
kts
Gust
kts
22/11:30pm 25.8 27.4 22.2 80 2.4 E 17 20 9 11 1012.7 - 0.0
22/11:00pm 25.5 28.0 22.4 83 2.1 E 13 17 7 9 1012.9 - 0.0
22/10:30pm 25.5 27.8 22.1 81 2.3 E 13 17 7 9 1012.9 - 0.0
22/10:00pm 25.6 28.3 22.2 81 2.3 E 11 15 6 8 1012.6 - 0.0
22/09:30pm 25.7 28.4 22.1 80 2.4 ENE 11 15 6 8 1012.5 - 0.0
22/09:00pm 25.6 27.5 22.0 80 2.4 E 15 20 8 11 1012.3 1012.2 0.0
22/08:30pm 25.4 28.2 22.3 83 2.1 E 11 17 6 9 1011.9 - 0.0
22/08:21pm 25.4 27.8 22.3 83 2.1 E 13 17 7 9 1011.8 - 0.0
22/08:00pm 25.5 28.2 22.2 82 2.2 E 11 15 6 8 1011.6 - 0.0
22/07:45pm 25.6 28.4 22.3 82 2.2 ENE 11 15 6 8 1011.4 - 0.0
22/07:30pm 25.3 27.9 22.0 82 2.2 E 11 15 6 8 1011.3 - 0.0
22/07:00pm 25.4 28.6 22.3 83 2.1 E 9 11 5 6 1011.1 - 0.0
22/06:30pm 25.9 27.6 21.7 77 2.8 E 15 19 8 10 1010.6 - 0.0
22/06:00pm 26.4 27.8 21.8 76 3.1 ENE 17 22 9 12 1010.3 1010.2 0.0
22/05:30pm 27.2 28.2 21.7 72 3.7 E 19 24 10 13 1010.0 - 0.0
22/05:00pm 27.8 28.5 21.5 68 4.2 ENE 20 28 11 15 1009.6 - 0.0
22/04:30pm 28.1 28.8 21.5 67 4.4 E 20 30 11 16 1009.6 - 0.0
22/04:00pm 28.4 27.9 20.7 63 5.1 E 24 30 13 16 1009.5 - 0.0
22/03:00pm 29.2 28.8 20.9 61 5.5 E 24 32 13 17 1009.7 1009.6 0.0
22/02:30pm 29.2 27.9 19.9 57 6.1 E 26 33 14 18 1009.9 - 0.0
22/02:00pm 30.0 29.5 20.7 57 6.2 E 24 35 13 19 1010.1 - 0.0
22/01:30pm 29.9 28.2 19.7 54 6.7 E 28 35 15 19 1010.3 - 0.0
22/01:00pm 30.4 29.8 20.4 55 6.6 E 24 32 13 17 1010.7 - 0.0
22/12:30pm 30.7 30.5 20.5 54 6.8 E 22 30 12 16 1011.1 - 0.0
22/12:00pm 30.0 29.6 20.1 55 6.5 E 22 33 12 18 1011.7 1011.6 0.0
22/11:30am 30.0 30.0 19.8 54 6.7 E 19 24 10 13 1012.2 - 0.0
22/11:00am 30.1 31.3 19.9 54 6.7 ESE 13 19 7 10 1012.7 - 0.0
22/10:30am 29.7 31.5 20.3 57 6.2 ESE 11 19 6 10 1013.2 - 0.0
22/09:30am 27.9 30.9 19.2 59 5.6 NNW 2 7 1 4 1013.9 - 0.0
22/09:00am 27.0 31.3 21.1 70 3.9 CALM 0 0 0 0 1014.2 1014.1 0.0
22/08:30am 27.0 30.0 21.3 71 3.8 SE 7 11 4 6 1014.1 - 0.0
22/08:00am 26.4 29.9 22.1 77 2.9 SW 7 11 4 6 1013.9 - 0.0
22/07:30am 24.5 28.5 22.1 86 1.6 WSW 4 9 2 5 1013.7 - 0.0
22/07:00am 23.3 27.6 21.9 92 0.9 WSW 2 7 1 4 1013.4 - 0.0
22/06:30am 21.8 26.1 21.2 96 0.4 CALM 0 0 0 0 1012.9 - 0.0
22/06:00am 21.4 24.3 20.6 95 0.5 W 6 7 3 4 1012.5 1012.4 0.0
22/05:30am 21.6 24.4 20.8 95 0.5 W 7 9 4 5 1012.4 - 0.0
22/05:00am 21.1 25.0 20.3 95 0.5 CALM 0 0 0 0 1011.7 - 0.0
22/04:30am 21.4 24.3 20.6 95 0.5 W 6 7 3 4 1011.3 - 0.0
22/04:00am 21.6 24.6 20.8 95 0.5 WNW 6 9 3 5 1011.2 - 0.0
22/03:30am 21.6 25.7 20.7 95 0.6 CALM 0 0 0 0 1011.0 - 0.0
22/03:00am 21.8 26.0 20.9 95 0.6 CALM 0 0 0 0 1011.0 1010.9 0.0
22/02:30am 22.0 26.3 21.1 95 0.6 CALM 0 0 0 0 1011.1 - 0.0
22/02:00am 22.1 26.3 21.0 93 0.7 CALM 0 0 0 0 1011.4 - 0.0
22/01:32am 22.5 26.9 21.3 93 0.8 CALM 0 0 0 0 1011.5 - 0.0
22/01:30am 22.6 26.9 21.2 92 0.9 CALM 0 0 0 0 1011.6 - 0.0
22/01:00am 22.8 27.2 21.4 92 0.9 CALM 0 0 0 0 1011.9 - 0.0
22/12:30am 22.5 26.5 21.3 93 0.8 ENE 2 7 1 4 1012.1 - 0.0
22/12:00am 22.9 27.5 21.7 93 0.8 CALM 0 0 0 0 1012.4 1012.3 0.0
 
Date/Time
EST
Temp
°C
App
Temp
°C
Dew
Point
°C
Rel
Hum
%
Delta-T
°C
Wind Press
QNH
hPa
Press
MSL
hPa
Rain since
9am
mm
Dir  Spd
km/h
Gust
km/h
Spd
kts
Gust
kts
21/11:30pm 23.1 27.8 21.9 93 0.8 CALM 0 0 0 0 1012.9 - 0.0
21/11:07pm 23.2 27.8 21.7 91 1.0 CALM 0 0 0 0 1013.1 - 0.0
21/11:00pm 23.2 27.8 21.7 91 1.0 CALM 0 0 0 0 1013.1 - 0.0
21/10:36pm 23.5 28.1 21.7 90 1.2 CALM 0 0 0 0 1013.2 - 0.0
21/10:30pm 23.4 28.0 21.7 90 1.1 CALM 0 0 0 0 1013.1 - 0.0
21/10:00pm 23.5 28.1 21.8 90 1.1 CALM 0 0 0 0 1013.0 - 0.0
21/09:30pm 23.7 28.4 21.9 90 1.2 CALM 0 0 0 0 1012.9 - 0.0
21/09:21pm 23.7 28.3 21.7 88 1.3 CALM 0 0 0 0 1012.8 - 0.0
21/09:00pm 23.6 28.1 21.6 88 1.3 CALM 0 0 0 0 1012.5 1012.4 0.0
21/08:30pm 24.0 28.6 21.7 87 1.5 CALM 0 0 0 0 1012.4 - 0.0
21/08:00pm 24.1 28.6 21.5 85 1.7 CALM 0 0 0 0 1012.2 - 0.0
21/07:30pm 24.4 28.8 21.4 83 2.0 CALM 0 6 0 3 1011.7 - 0.0
21/07:00pm 25.0 28.9 21.2 79 2.5 ENE 2 9 1 5 1011.6 - 0.0
21/06:30pm 25.4 27.4 20.8 75 3.0 E 11 17 6 9 1011.1 - 0.0
21/06:00pm 26.1 27.3 20.6 71 3.6 ENE 15 24 8 13 1010.8 1010.7 0.0
21/05:30pm 26.7 27.1 20.6 69 4.0 E 19 24 10 13 1010.4 - 0.0
21/05:00pm 27.2 27.5 20.5 67 4.4 E 19 28 10 15 1010.3 - 0.0
21/04:30pm 28.0 28.2 20.2 62 5.1 E 19 28 10 15 1010.2 - 0.0
21/04:00pm 28.0 27.3 20.2 62 5.1 E 24 33 13 18 1010.3 - 0.0
21/03:30pm 28.7 28.1 19.8 58 5.8 E 22 32 12 17 1010.5 - 0.0
21/03:00pm 28.5 27.8 19.4 57 5.9 E 22 30 12 16 1010.7 1010.6 0.0
21/02:30pm 28.6 28.0 19.7 58 5.8 E 22 30 12 16 1011.1 - 0.0
21/02:00pm 29.0 28.4 19.7 57 6.1 E 22 30 12 16 1011.6 - 0.0
21/01:30pm 29.6 29.3 19.5 54 6.6 E 20 28 11 15 1012.0 - 0.0
21/01:00pm 29.6 29.2 19.3 54 6.7 E 20 30 11 16 1012.6 - 0.0
21/12:30pm 28.9 28.8 18.8 54 6.5 ENE 17 22 9 12 1013.2 - 0.0
21/12:00pm 28.9 29.0 18.4 53 6.7 E 15 24 8 13 1013.9 1013.8 0.0
21/11:30am 29.0 28.7 18.2 52 6.9 E 17 26 9 14 1014.3 - 0.0
21/11:00am 28.6 27.8 18.1 53 6.7 ENE 19 24 10 13 1014.6 - 0.0
21/10:30am 29.0 28.2 18.0 51 7.0 ENE 19 26 10 14 1014.9 - 0.0
21/10:00am 28.2 27.3 17.8 53 6.6 ENE 19 26 10 14 1015.2 - 0.0
21/09:30am 28.0 27.2 18.1 55 6.3 E 19 24 10 13 1015.3 - 0.0
21/09:00am 28.1 28.8 18.9 57 5.9 SE 13 19 7 10 1015.2 1015.1 0.0
21/08:30am 27.1 27.7 19.4 62 5.0 SE 15 20 8 11 1015.2 - 0.0
21/08:00am 27.4 27.6 19.4 61 5.2 ESE 17 22 9 12 1014.9 - 0.0
21/07:30am 26.9 28.1 20.0 66 4.5 ESE 13 20 7 11 1014.6 - 0.0
21/07:00am 26.1 28.0 20.6 71 3.6 SE 11 13 6 7 1014.1 - 0.0
21/06:30am 24.7 26.6 20.6 78 2.7 ESE 11 15 6 8 1013.6 - 0.0
21/06:00am 23.9 26.1 20.5 81 2.2 ESE 9 15 5 8 1013.5 1013.4 0.0
21/05:30am 24.0 26.2 20.5 81 2.3 ESE 9 13 5 7 1013.4 - 0.0
21/05:00am 24.5 25.8 20.2 77 2.8 ESE 13 19 7 10 1013.0 - 0.0
21/04:30am 24.6 26.1 20.6 78 2.6 ESE 13 20 7 11 1012.7 - 0.0
21/04:00am 24.6 26.7 20.9 80 2.4 ESE 11 15 6 8 1012.6 - 0.0
21/03:30am 24.4 26.4 20.7 80 2.4 ESE 11 15 6 8 1012.4 - 0.0
21/03:00am 24.5 25.9 20.3 77 2.7 E 13 19 7 10 1012.6 1012.5 0.0
21/02:30am 24.7 25.9 20.6 78 2.7 ESE 15 20 8 11 1012.6 - 0.0
21/02:00am 24.7 25.9 20.7 78 2.6 ESE 15 22 8 12 1012.7 - 0.0
21/01:30am 24.9 25.3 20.6 77 2.8 E 19 28 10 15 1013.0 - 0.0
21/01:00am 24.7 24.9 20.2 76 2.9 E 19 28 10 15 1013.1 - 0.0
21/12:30am 25.1 25.2 20.3 74 3.1 ESE 20 32 11 17 1013.5 - 0.0
21/12:00am 25.1 25.5 20.7 76 2.9 ESE 19 26 10 14 1013.8 1013.7 0.0
 
Date/Time
EST
Temp
°C
App
Temp
°C
Dew
Point
°C
Rel
Hum
%
Delta-T
°C
Wind Press
QNH
hPa
Press
MSL
hPa
Rain since
9am
mm
Dir  Spd
km/h
Gust
km/h
Spd
kts
Gust
kts
20/11:30pm 25.2 26.6 21.1 78 2.7 ESE 15 24 8 13 1014.2 - 0.0
20/11:00pm 25.3 26.1 20.7 75 3.0 ESE 17 24 9 13 1014.4 - 0.0
20/10:30pm 25.4 25.7 20.5 74 3.2 ESE 19 30 10 16 1014.7 - 0.0
20/10:00pm 25.6 25.8 20.6 74 3.3 ESE 20 30 11 16 1014.7 - 0.0
20/09:30pm 25.6 25.9 20.7 74 3.2 ESE 20 30 11 16 1014.5 - 0.0
20/08:30pm 25.5 25.8 20.3 73 3.4 ESE 19 28 10 15 1014.0 - 0.0

Other Formats:

Comma delimited format used in spreadsheet applications
http://www.bom.gov.au/fwo/IDQ60801/IDQ60801.95283.axf

JavaScript Object Notation format (JSON) in row-major order
http://www.bom.gov.au/fwo/IDQ60801/IDQ60801.95283.json